sensor_id;sensor_type;location;lat;lon;timestamp;P1;durP1;ratioP1;P2;durP2;ratioP2
5801;SDS011;2927;49.366;8.530;2022-07-01T00:02:07;1.97;;;0.70;;
5801;SDS011;2927;49.366;8.530;2022-07-01T00:04:33;0.70;;;0.50;;
5801;SDS011;2927;49.366;8.530;2022-07-01T00:06:58;0.80;;;0.70;;
5801;SDS011;2927;49.366;8.530;2022-07-01T00:09:24;1.07;;;0.70;;
5801;SDS011;2927;49.366;8.530;2022-07-01T00:11:50;2.63;;;0.63;;
5801;SDS011;2927;49.366;8.530;2022-07-01T00:14:15;2.00;;;0.50;;
5801;SDS011;2927;49.366;8.530;2022-07-01T00:16:41;0.80;;;0.67;;
5801;SDS011;2927;49.366;8.530;2022-07-01T00:19:06;4.57;;;1.33;;
5801;SDS011;2927;49.366;8.530;2022-07-01T00:21:32;6.43;;;1.00;;
5801;SDS011;2927;49.366;8.530;2022-07-01T00:23:58;0.50;;;0.40;;
5801;SDS011;2927;49.366;8.530;2022-07-01T00:26:24;0.93;;;0.60;;
5801;SDS011;2927;49.366;8.530;2022-07-01T00:28:50;5.40;;;0.70;;
5801;SDS011;2927;49.366;8.530;2022-07-01T00:31:15;1.43;;;0.90;;
5801;SDS011;2927;49.366;8.530;2022-07-01T00:33:41;0.50;;;0.50;;
5801;SDS011;2927;49.366;8.530;2022-07-01T00:36:06;0.60;;;0.60;;
5801;SDS011;2927;49.366;8.530;2022-07-01T00:38:32;5.30;;;0.60;;
5801;SDS011;2927;49.366;8.530;2022-07-01T00:40:58;1.17;;;0.73;;
5801;SDS011;2927;49.366;8.530;2022-07-01T00:43:23;2.83;;;0.67;;
5801;SDS011;2927;49.366;8.530;2022-07-01T00:45:50;0.60;;;0.40;;
5801;SDS011;2927;49.366;8.530;2022-07-01T00:48:17;3.30;;;0.50;;
5801;SDS011;2927;49.366;8.530;2022-07-01T00:50:44;1.50;;;0.60;;
5801;SDS011;2927;49.366;8.530;2022-07-01T00:53:10;0.73;;;0.50;;
5801;SDS011;2927;49.366;8.530;2022-07-01T00:55:40;1.27;;;0.87;;
5801;SDS011;2927;49.366;8.530;2022-07-01T00:58:07;1.00;;;0.50;;
5801;SDS011;2927;49.366;8.530;2022-07-01T01:00:33;0.60;;;0.60;;
5801;SDS011;2927;49.366;8.530;2022-07-01T01:03:00;2.77;;;0.50;;
5801;SDS011;2927;49.366;8.530;2022-07-01T01:05:25;3.60;;;0.60;;
5801;SDS011;2927;49.366;8.530;2022-07-01T01:07:51;1.23;;;0.67;;
5801;SDS011;2927;49.366;8.530;2022-07-01T01:10:17;0.70;;;0.50;;
5801;SDS011;2927;49.366;8.530;2022-07-01T01:12:43;1.40;;;0.70;;
5801;SDS011;2927;49.366;8.530;2022-07-01T01:15:10;2.03;;;1.13;;
5801;SDS011;2927;49.366;8.530;2022-07-01T01:17:42;3.80;;;0.80;;
5801;SDS011;2927;49.366;8.530;2022-07-01T01:20:07;2.67;;;0.50;;
5801;SDS011;2927;49.366;8.530;2022-07-01T01:22:33;0.50;;;0.50;;
5801;SDS011;2927;49.366;8.530;2022-07-01T01:24:59;0.97;;;0.60;;
5801;SDS011;2927;49.366;8.530;2022-07-01T01:27:24;0.60;;;0.60;;
5801;SDS011;2927;49.366;8.530;2022-07-01T01:29:50;2.60;;;0.70;;
5801;SDS011;2927;49.366;8.530;2022-07-01T01:32:16;0.47;;;0.47;;
5801;SDS011;2927;49.366;8.530;2022-07-01T01:34:41;1.10;;;0.60;;
5801;SDS011;2927;49.366;8.530;2022-07-01T01:37:07;0.83;;;0.50;;
5801;SDS011;2927;49.366;8.530;2022-07-01T01:39:34;0.90;;;0.50;;
5801;SDS011;2927;49.366;8.530;2022-07-01T01:42:02;0.93;;;0.50;;
5801;SDS011;2927;49.366;8.530;2022-07-01T01:44:31;1.23;;;0.50;;
5801;SDS011;2927;49.366;8.530;2022-07-01T01:46:57;0.83;;;0.80;;
5801;SDS011;2927;49.366;8.530;2022-07-01T01:49:22;0.50;;;0.43;;
5801;SDS011;2927;49.366;8.530;2022-07-01T01:51:48;0.77;;;0.77;;
5801;SDS011;2927;49.366;8.530;2022-07-01T01:54:13;2.03;;;0.70;;
5801;SDS011;2927;49.366;8.530;2022-07-01T01:56:39;1.43;;;0.60;;
5801;SDS011;2927;49.366;8.530;2022-07-01T01:59:05;4.83;;;0.70;;
5801;SDS011;2927;49.366;8.530;2022-07-01T02:01:30;0.80;;;0.63;;
5801;SDS011;2927;49.366;8.530;2022-07-01T02:03:56;1.93;;;0.50;;
5801;SDS011;2927;49.366;8.530;2022-07-01T02:06:23;0.60;;;0.60;;
5801;SDS011;2927;49.366;8.530;2022-07-01T02:08:49;0.60;;;0.50;;
5801;SDS011;2927;49.366;8.530;2022-07-01T02:11:14;0.50;;;0.50;;
5801;SDS011;2927;49.366;8.530;2022-07-01T02:13:40;1.10;;;0.47;;
5801;SDS011;2927;49.366;8.530;2022-07-01T02:16:06;1.83;;;0.70;;
5801;SDS011;2927;49.366;8.530;2022-07-01T02:18:31;0.60;;;0.60;;
5801;SDS011;2927;49.366;8.530;2022-07-01T02:20:57;2.10;;;0.60;;
5801;SDS011;2927;49.366;8.530;2022-07-01T02:23:23;0.80;;;0.60;;
5801;SDS011;2927;49.366;8.530;2022-07-01T02:25:49;1.07;;;0.63;;
5801;SDS011;2927;49.366;8.530;2022-07-01T02:28:15;4.13;;;0.50;;
5801;SDS011;2927;49.366;8.530;2022-07-01T02:30:41;0.63;;;0.63;;
5801;SDS011;2927;49.366;8.530;2022-07-01T02:33:07;1.47;;;0.60;;
5801;SDS011;2927;49.366;8.530;2022-07-01T02:35:34;1.90;;;0.87;;
5801;SDS011;2927;49.366;8.530;2022-07-01T02:38:02;0.77;;;0.70;;
5801;SDS011;2927;49.366;8.530;2022-07-01T02:40:28;2.70;;;0.63;;
5801;SDS011;2927;49.366;8.530;2022-07-01T02:42:54;1.30;;;0.90;;
5801;SDS011;2927;49.366;8.530;2022-07-01T02:45:19;3.40;;;0.77;;
5801;SDS011;2927;49.366;8.530;2022-07-01T02:47:45;0.60;;;0.60;;
5801;SDS011;2927;49.366;8.530;2022-07-01T02:50:11;0.77;;;0.77;;
5801;SDS011;2927;49.366;8.530;2022-07-01T02:52:39;0.60;;;0.60;;
5801;SDS011;2927;49.366;8.530;2022-07-01T02:55:06;0.73;;;0.53;;
5801;SDS011;2927;49.366;8.530;2022-07-01T02:57:33;0.93;;;0.57;;
5801;SDS011;2927;49.366;8.530;2022-07-01T02:59:59;3.60;;;0.70;;
5801;SDS011;2927;49.366;8.530;2022-07-01T03:02:25;1.00;;;0.90;;
5801;SDS011;2927;49.366;8.530;2022-07-01T03:04:51;1.83;;;0.57;;
5801;SDS011;2927;49.366;8.530;2022-07-01T03:07:17;0.70;;;0.70;;
5801;SDS011;2927;49.366;8.530;2022-07-01T03:09:43;0.60;;;0.50;;
5801;SDS011;2927;49.366;8.530;2022-07-01T03:12:10;1.90;;;0.70;;
5801;SDS011;2927;49.366;8.530;2022-07-01T03:14:55;0.90;;;0.77;;
5801;SDS011;2927;49.366;8.530;2022-07-01T03:17:21;0.70;;;0.70;;
5801;SDS011;2927;49.366;8.530;2022-07-01T03:19:48;1.27;;;0.63;;
5801;SDS011;2927;49.366;8.530;2022-07-01T03:22:14;1.53;;;0.70;;
5801;SDS011;2927;49.366;8.530;2022-07-01T03:24:40;1.57;;;1.10;;
5801;SDS011;2927;49.366;8.530;2022-07-01T03:27:05;2.00;;;0.93;;
5801;SDS011;2927;49.366;8.530;2022-07-01T03:29:31;5.13;;;0.93;;
5801;SDS011;2927;49.366;8.530;2022-07-01T03:31:56;0.97;;;0.87;;
5801;SDS011;2927;49.366;8.530;2022-07-01T03:34:22;7.90;;;0.97;;
5801;SDS011;2927;49.366;8.530;2022-07-01T03:36:47;0.90;;;0.70;;
5801;SDS011;2927;49.366;8.530;2022-07-01T03:39:13;1.40;;;1.30;;
5801;SDS011;2927;49.366;8.530;2022-07-01T03:41:38;0.70;;;0.70;;
5801;SDS011;2927;49.366;8.530;2022-07-01T03:44:04;6.43;;;1.17;;
5801;SDS011;2927;49.366;8.530;2022-07-01T03:46:31;1.10;;;1.00;;
5801;SDS011;2927;49.366;8.530;2022-07-01T03:48:57;1.03;;;0.97;;
5801;SDS011;2927;49.366;8.530;2022-07-01T03:51:23;1.37;;;1.27;;
5801;SDS011;2927;49.366;8.530;2022-07-01T03:53:49;1.00;;;1.00;;
5801;SDS011;2927;49.366;8.530;2022-07-01T03:56:33;1.37;;;1.27;;
5801;SDS011;2927;49.366;8.530;2022-07-01T03:58:59;1.60;;;1.50;;
5801;SDS011;2927;49.366;8.530;2022-07-01T04:01:24;1.90;;;1.60;;
5801;SDS011;2927;49.366;8.530;2022-07-01T04:03:50;1.70;;;1.40;;
5801;SDS011;2927;49.366;8.530;2022-07-01T04:06:15;3.80;;;1.50;;
5801;SDS011;2927;49.366;8.530;2022-07-01T04:08:41;4.90;;;1.90;;
5801;SDS011;2927;49.366;8.530;2022-07-01T04:11:07;11.03;;;1.97;;
5801;SDS011;2927;49.366;8.530;2022-07-01T04:13:34;2.40;;;2.20;;
5801;SDS011;2927;49.366;8.530;2022-07-01T04:16:02;2.20;;;1.50;;
5801;SDS011;2927;49.366;8.530;2022-07-01T04:18:28;1.80;;;1.70;;
5801;SDS011;2927;49.366;8.530;2022-07-01T04:20:54;5.43;;;2.67;;
5801;SDS011;2927;49.366;8.530;2022-07-01T04:23:38;1.80;;;1.70;;
5801;SDS011;2927;49.366;8.530;2022-07-01T04:26:03;3.27;;;2.00;;
5801;SDS011;2927;49.366;8.530;2022-07-01T04:28:29;1.87;;;1.77;;
5801;SDS011;2927;49.366;8.530;2022-07-01T04:30:54;6.93;;;2.40;;
5801;SDS011;2927;49.366;8.530;2022-07-01T04:33:20;2.50;;;1.70;;
5801;SDS011;2927;49.366;8.530;2022-07-01T04:35:45;1.60;;;1.50;;
5801;SDS011;2927;49.366;8.530;2022-07-01T04:38:11;2.03;;;1.93;;
5801;SDS011;2927;49.366;8.530;2022-07-01T04:40:36;2.03;;;1.93;;
5801;SDS011;2927;49.366;8.530;2022-07-01T04:43:02;1.67;;;1.57;;
5801;SDS011;2927;49.366;8.530;2022-07-01T04:45:27;2.80;;;1.70;;
5801;SDS011;2927;49.366;8.530;2022-07-01T04:47:53;1.50;;;1.40;;
5801;SDS011;2927;49.366;8.530;2022-07-01T04:50:18;4.63;;;1.73;;
5801;SDS011;2927;49.366;8.530;2022-07-01T04:52:44;2.13;;;1.77;;
5801;SDS011;2927;49.366;8.530;2022-07-01T04:55:10;4.17;;;1.83;;
5801;SDS011;2927;49.366;8.530;2022-07-01T04:57:35;1.83;;;1.73;;
5801;SDS011;2927;49.366;8.530;2022-07-01T05:00:01;3.10;;;1.77;;
5801;SDS011;2927;49.366;8.530;2022-07-01T05:02:26;1.57;;;1.47;;
5801;SDS011;2927;49.366;8.530;2022-07-01T05:04:52;1.67;;;1.40;;
5801;SDS011;2927;49.366;8.530;2022-07-01T05:07:18;1.70;;;1.60;;
5801;SDS011;2927;49.366;8.530;2022-07-01T05:09:56;1.97;;;1.33;;
5801;SDS011;2927;49.366;8.530;2022-07-01T05:12:23;1.40;;;1.30;;
5801;SDS011;2927;49.366;8.530;2022-07-01T05:14:49;1.80;;;1.70;;
5801;SDS011;2927;49.366;8.530;2022-07-01T05:17:15;2.07;;;1.50;;
5801;SDS011;2927;49.366;8.530;2022-07-01T05:19:41;1.70;;;1.53;;
5801;SDS011;2927;49.366;8.530;2022-07-01T05:22:26;2.70;;;1.97;;
5801;SDS011;2927;49.366;8.530;2022-07-01T05:24:51;1.67;;;1.57;;
5801;SDS011;2927;49.366;8.530;2022-07-01T05:27:17;1.73;;;1.60;;
5801;SDS011;2927;49.366;8.530;2022-07-01T05:29:42;1.73;;;1.60;;
5801;SDS011;2927;49.366;8.530;2022-07-01T05:32:08;2.80;;;2.10;;
5801;SDS011;2927;49.366;8.530;2022-07-01T05:34:34;1.60;;;1.40;;
5801;SDS011;2927;49.366;8.530;2022-07-01T05:37:02;2.90;;;1.50;;
5801;SDS011;2927;49.366;8.530;2022-07-01T05:39:27;3.47;;;1.90;;
5801;SDS011;2927;49.366;8.530;2022-07-01T05:41:53;1.70;;;1.60;;
5801;SDS011;2927;49.366;8.530;2022-07-01T05:44:18;1.37;;;1.20;;
5801;SDS011;2927;49.366;8.530;2022-07-01T05:46:46;2.73;;;2.33;;
5801;SDS011;2927;49.366;8.530;2022-07-01T05:49:11;1.40;;;1.30;;
5801;SDS011;2927;49.366;8.530;2022-07-01T05:51:37;2.17;;;2.00;;
5801;SDS011;2927;49.366;8.530;2022-07-01T05:54:03;3.73;;;2.23;;
5801;SDS011;2927;49.366;8.530;2022-07-01T05:56:28;5.13;;;2.53;;
5801;SDS011;2927;49.366;8.530;2022-07-01T05:58:54;3.00;;;2.80;;
5801;SDS011;2927;49.366;8.530;2022-07-01T06:01:19;3.17;;;2.93;;
5801;SDS011;2927;49.366;8.530;2022-07-01T06:03:45;3.30;;;2.40;;
5801;SDS011;2927;49.366;8.530;2022-07-01T06:06:10;4.13;;;2.37;;
5801;SDS011;2927;49.366;8.530;2022-07-01T06:08:36;4.83;;;2.80;;
5801;SDS011;2927;49.366;8.530;2022-07-01T06:11:01;2.80;;;2.60;;
5801;SDS011;2927;49.366;8.530;2022-07-01T06:13:28;6.37;;;2.70;;
5801;SDS011;2927;49.366;8.530;2022-07-01T06:15:54;4.63;;;2.83;;
5801;SDS011;2927;49.366;8.530;2022-07-01T06:18:19;3.77;;;2.70;;
5801;SDS011;2927;49.366;8.530;2022-07-01T06:20:45;6.93;;;2.90;;
5801;SDS011;2927;49.366;8.530;2022-07-01T06:23:11;6.40;;;2.93;;
5801;SDS011;2927;49.366;8.530;2022-07-01T06:25:36;7.77;;;2.70;;
5801;SDS011;2927;49.366;8.530;2022-07-01T06:28:02;3.47;;;3.17;;
5801;SDS011;2927;49.366;8.530;2022-07-01T06:30:27;3.67;;;3.13;;
5801;SDS011;2927;49.366;8.530;2022-07-01T06:32:53;6.43;;;4.10;;
5801;SDS011;2927;49.366;8.530;2022-07-01T06:35:18;5.60;;;3.20;;
5801;SDS011;2927;49.366;8.530;2022-07-01T06:37:44;9.90;;;3.80;;
5801;SDS011;2927;49.366;8.530;2022-07-01T06:40:10;6.80;;;3.47;;
5801;SDS011;2927;49.366;8.530;2022-07-01T06:42:35;3.63;;;3.13;;
5801;SDS011;2927;49.366;8.530;2022-07-01T06:45:01;11.23;;;4.47;;
5801;SDS011;2927;49.366;8.530;2022-07-01T06:47:26;4.27;;;3.30;;
5801;SDS011;2927;49.366;8.530;2022-07-01T06:49:52;4.53;;;2.80;;
5801;SDS011;2927;49.366;8.530;2022-07-01T06:52:18;4.10;;;2.70;;
5801;SDS011;2927;49.366;8.530;2022-07-01T06:54:43;3.00;;;2.40;;
5801;SDS011;2927;49.366;8.530;2022-07-01T06:57:09;3.20;;;2.50;;
5801;SDS011;2927;49.366;8.530;2022-07-01T06:59:34;3.70;;;2.50;;
5801;SDS011;2927;49.366;8.530;2022-07-01T07:02:00;2.83;;;1.90;;
5801;SDS011;2927;49.366;8.530;2022-07-01T07:04:25;2.57;;;2.07;;
5801;SDS011;2927;49.366;8.530;2022-07-01T07:06:51;1.70;;;1.60;;
5801;SDS011;2927;49.366;8.530;2022-07-01T07:09:17;1.50;;;1.40;;
5801;SDS011;2927;49.366;8.530;2022-07-01T07:11:42;2.10;;;1.33;;
5801;SDS011;2927;49.366;8.530;2022-07-01T07:14:08;1.30;;;1.20;;
5801;SDS011;2927;49.366;8.530;2022-07-01T07:16:33;1.10;;;1.00;;
5801;SDS011;2927;49.366;8.530;2022-07-01T07:18:59;3.00;;;1.20;;
5801;SDS011;2927;49.366;8.530;2022-07-01T07:21:25;1.17;;;1.03;;
5801;SDS011;2927;49.366;8.530;2022-07-01T07:23:50;4.30;;;1.73;;
5801;SDS011;2927;49.366;8.530;2022-07-01T07:26:15;1.53;;;1.20;;
5801;SDS011;2927;49.366;8.530;2022-07-01T07:28:41;0.97;;;0.97;;
5801;SDS011;2927;49.366;8.530;2022-07-01T07:31:07;3.57;;;1.60;;
5801;SDS011;2927;49.366;8.530;2022-07-01T07:33:32;1.37;;;1.27;;
5801;SDS011;2927;49.366;8.530;2022-07-01T07:35:58;1.30;;;1.20;;
5801;SDS011;2927;49.366;8.530;2022-07-01T07:38:23;2.23;;;1.13;;
5801;SDS011;2927;49.366;8.530;2022-07-01T07:40:49;9.80;;;1.40;;
5801;SDS011;2927;49.366;8.530;2022-07-01T07:43:14;0.90;;;0.90;;
5801;SDS011;2927;49.366;8.530;2022-07-01T07:45:40;3.43;;;1.17;;
5801;SDS011;2927;49.366;8.530;2022-07-01T07:48:05;5.20;;;0.93;;
5801;SDS011;2927;49.366;8.530;2022-07-01T07:50:31;1.77;;;1.50;;
5801;SDS011;2927;49.366;8.530;2022-07-01T07:52:57;1.60;;;1.47;;
5801;SDS011;2927;49.366;8.530;2022-07-01T07:55:23;1.40;;;1.30;;
5801;SDS011;2927;49.366;8.530;2022-07-01T07:57:49;1.40;;;1.30;;
5801;SDS011;2927;49.366;8.530;2022-07-01T08:00:15;2.37;;;2.20;;
5801;SDS011;2927;49.366;8.530;2022-07-01T08:02:41;2.57;;;2.47;;
5801;SDS011;2927;49.366;8.530;2022-07-01T08:05:08;1.50;;;1.33;;
5801;SDS011;2927;49.366;8.530;2022-07-01T08:07:35;1.70;;;1.60;;
5801;SDS011;2927;49.366;8.530;2022-07-01T08:10:01;2.13;;;1.30;;
5801;SDS011;2927;49.366;8.530;2022-07-01T08:12:28;2.63;;;1.40;;
5801;SDS011;2927;49.366;8.530;2022-07-01T08:14:54;1.53;;;1.43;;
5801;SDS011;2927;49.366;8.530;2022-07-01T08:17:19;1.83;;;1.73;;
5801;SDS011;2927;49.366;8.530;2022-07-01T08:19:45;1.70;;;1.60;;
5801;SDS011;2927;49.366;8.530;2022-07-01T08:22:10;2.03;;;1.30;;
5801;SDS011;2927;49.366;8.530;2022-07-01T08:24:36;4.13;;;1.60;;
5801;SDS011;2927;49.366;8.530;2022-07-01T08:27:01;2.10;;;1.60;;
5801;SDS011;2927;49.366;8.530;2022-07-01T08:29:27;3.20;;;2.33;;
5801;SDS011;2927;49.366;8.530;2022-07-01T08:31:53;1.60;;;1.50;;
5801;SDS011;2927;49.366;8.530;2022-07-01T08:34:18;1.63;;;1.53;;
5801;SDS011;2927;49.366;8.530;2022-07-01T08:36:44;2.50;;;1.67;;
5801;SDS011;2927;49.366;8.530;2022-07-01T08:39:09;2.23;;;1.50;;
5801;SDS011;2927;49.366;8.530;2022-07-01T08:41:35;2.33;;;1.37;;
5801;SDS011;2927;49.366;8.530;2022-07-01T08:44:00;2.13;;;1.80;;
5801;SDS011;2927;49.366;8.530;2022-07-01T08:46:26;1.60;;;1.50;;
5801;SDS011;2927;49.366;8.530;2022-07-01T08:48:52;2.17;;;2.03;;
5801;SDS011;2927;49.366;8.530;2022-07-01T08:51:18;1.97;;;1.53;;
5801;SDS011;2927;49.366;8.530;2022-07-01T08:53:43;1.63;;;1.53;;
5801;SDS011;2927;49.366;8.530;2022-07-01T08:56:09;2.80;;;1.37;;
5801;SDS011;2927;49.366;8.530;2022-07-01T08:59:23;1.90;;;1.80;;
5801;SDS011;2927;49.366;8.530;2022-07-01T09:01:57;2.83;;;1.23;;
5801;SDS011;2927;49.366;8.530;2022-07-01T09:04:28;2.37;;;1.93;;
5801;SDS011;2927;49.366;8.530;2022-07-01T09:07:04;1.73;;;1.50;;
5801;SDS011;2927;49.366;8.530;2022-07-01T09:09:35;0.93;;;0.93;;
5801;SDS011;2927;49.366;8.530;2022-07-01T09:12:02;1.20;;;1.13;;
5801;SDS011;2927;49.366;8.530;2022-07-01T09:14:29;1.87;;;1.70;;
5801;SDS011;2927;49.366;8.530;2022-07-01T09:16:56;2.03;;;1.60;;
5801;SDS011;2927;49.366;8.530;2022-07-01T09:19:23;1.53;;;1.43;;
5801;SDS011;2927;49.366;8.530;2022-07-01T09:21:51;3.17;;;1.10;;
5801;SDS011;2927;49.366;8.530;2022-07-01T09:24:25;1.20;;;1.20;;
5801;SDS011;2927;49.366;8.530;2022-07-01T09:26:55;0.97;;;0.97;;
5801;SDS011;2927;49.366;8.530;2022-07-01T09:29:25;2.20;;;1.70;;
5801;SDS011;2927;49.366;8.530;2022-07-01T09:31:56;0.83;;;0.83;;
5801;SDS011;2927;49.366;8.530;2022-07-01T09:34:22;5.70;;;1.40;;
5801;SDS011;2927;49.366;8.530;2022-07-01T09:36:54;1.47;;;1.10;;
5801;SDS011;2927;49.366;8.530;2022-07-01T09:39:21;2.10;;;0.90;;
5801;SDS011;2927;49.366;8.530;2022-07-01T09:41:47;1.00;;;0.90;;
5801;SDS011;2927;49.366;8.530;2022-07-01T09:44:12;1.37;;;1.27;;
5801;SDS011;2927;49.366;8.530;2022-07-01T09:46:38;3.10;;;1.33;;
5801;SDS011;2927;49.366;8.530;2022-07-01T09:49:17;1.33;;;1.00;;
5801;SDS011;2927;49.366;8.530;2022-07-01T09:51:43;0.73;;;0.73;;
5801;SDS011;2927;49.366;8.530;2022-07-01T09:54:09;3.80;;;1.20;;
5801;SDS011;2927;49.366;8.530;2022-07-01T09:56:37;1.27;;;0.80;;
5801;SDS011;2927;49.366;8.530;2022-07-01T09:59:03;1.50;;;1.33;;
5801;SDS011;2927;49.366;8.530;2022-07-01T10:01:29;3.37;;;1.40;;
5801;SDS011;2927;49.366;8.530;2022-07-01T10:03:57;0.87;;;0.87;;
5801;SDS011;2927;49.366;8.530;2022-07-01T10:06:34;5.17;;;1.10;;
5801;SDS011;2927;49.366;8.530;2022-07-01T10:09:16;1.40;;;1.23;;
5801;SDS011;2927;49.366;8.530;2022-07-01T10:14:30;10.90;;;2.00;;
5801;SDS011;2927;49.366;8.530;2022-07-01T10:16:57;1.50;;;1.13;;
5801;SDS011;2927;49.366;8.530;2022-07-01T10:21:49;3.23;;;1.33;;
5801;SDS011;2927;49.366;8.530;2022-07-01T10:24:17;1.27;;;1.10;;
5801;SDS011;2927;49.366;8.530;2022-07-01T10:26:44;2.10;;;1.07;;
5801;SDS011;2927;49.366;8.530;2022-07-01T10:29:27;0.80;;;0.80;;
5801;SDS011;2927;49.366;8.530;2022-07-01T10:31:54;0.80;;;0.80;;
5801;SDS011;2927;49.366;8.530;2022-07-01T10:34:53;4.90;;;1.27;;
5801;SDS011;2927;49.366;8.530;2022-07-01T10:37:29;1.53;;;1.20;;
5801;SDS011;2927;49.366;8.530;2022-07-01T10:42:31;1.03;;;0.83;;
5801;SDS011;2927;49.366;8.530;2022-07-01T10:47:36;7.40;;;1.30;;
5801;SDS011;2927;49.366;8.530;2022-07-01T10:50:04;1.13;;;1.13;;
5801;SDS011;2927;49.366;8.530;2022-07-01T10:52:37;1.17;;;1.17;;
5801;SDS011;2927;49.366;8.530;2022-07-01T10:55:04;1.53;;;0.90;;
5801;SDS011;2927;49.366;8.530;2022-07-01T10:57:35;3.80;;;1.90;;
5801;SDS011;2927;49.366;8.530;2022-07-01T11:04:56;4.00;;;0.90;;
5801;SDS011;2927;49.366;8.530;2022-07-01T11:07:24;0.80;;;0.80;;
5801;SDS011;2927;49.366;8.530;2022-07-01T11:09:51;0.97;;;0.97;;
5801;SDS011;2927;49.366;8.530;2022-07-01T11:12:17;4.40;;;1.40;;
5801;SDS011;2927;49.366;8.530;2022-07-01T11:14:45;0.97;;;0.97;;
5801;SDS011;2927;49.366;8.530;2022-07-01T11:17:10;1.30;;;1.20;;
5801;SDS011;2927;49.366;8.530;2022-07-01T11:19:36;2.20;;;1.13;;
5801;SDS011;2927;49.366;8.530;2022-07-01T11:22:03;2.20;;;1.10;;
5801;SDS011;2927;49.366;8.530;2022-07-01T11:24:30;2.30;;;1.23;;
5801;SDS011;2927;49.366;8.530;2022-07-01T11:27:05;1.27;;;1.10;;
5801;SDS011;2927;49.366;8.530;2022-07-01T11:29:35;2.90;;;1.40;;
5801;SDS011;2927;49.366;8.530;2022-07-01T11:32:01;3.80;;;1.10;;
5801;SDS011;2927;49.366;8.530;2022-07-01T11:34:28;1.77;;;1.27;;
5801;SDS011;2927;49.366;8.530;2022-07-01T11:36:54;1.23;;;0.87;;
5801;SDS011;2927;49.366;8.530;2022-07-01T11:39:39;2.30;;;0.90;;
5801;SDS011;2927;49.366;8.530;2022-07-01T11:42:07;2.27;;;1.50;;
5801;SDS011;2927;49.366;8.530;2022-07-01T11:47:01;1.20;;;1.20;;
5801;SDS011;2927;49.366;8.530;2022-07-01T11:49:29;1.30;;;1.20;;
5801;SDS011;2927;49.366;8.530;2022-07-01T11:51:58;1.13;;;1.00;;
5801;SDS011;2927;49.366;8.530;2022-07-01T11:54:33;1.20;;;1.20;;
5801;SDS011;2927;49.366;8.530;2022-07-01T11:57:14;5.90;;;1.40;;
5801;SDS011;2927;49.366;8.530;2022-07-01T11:59:41;2.40;;;1.50;;
5801;SDS011;2927;49.366;8.530;2022-07-01T12:02:08;1.10;;;1.00;;
5801;SDS011;2927;49.366;8.530;2022-07-01T12:04:36;6.53;;;1.03;;
5801;SDS011;2927;49.366;8.530;2022-07-01T12:07:02;1.00;;;1.00;;
5801;SDS011;2927;49.366;8.530;2022-07-01T12:09:29;2.97;;;1.30;;
5801;SDS011;2927;49.366;8.530;2022-07-01T12:11:55;1.37;;;0.67;;
5801;SDS011;2927;49.366;8.530;2022-07-01T12:14:21;1.23;;;1.07;;
5801;SDS011;2927;49.366;8.530;2022-07-01T12:16:50;1.40;;;1.00;;
5801;SDS011;2927;49.366;8.530;2022-07-01T12:19:20;1.90;;;0.93;;
5801;SDS011;2927;49.366;8.530;2022-07-01T12:21:58;1.73;;;1.00;;
5801;SDS011;2927;49.366;8.530;2022-07-01T12:24:24;2.73;;;1.17;;
5801;SDS011;2927;49.366;8.530;2022-07-01T12:26:51;11.83;;;1.33;;
5801;SDS011;2927;49.366;8.530;2022-07-01T12:29:23;1.47;;;1.30;;
5801;SDS011;2927;49.366;8.530;2022-07-01T12:31:53;1.30;;;1.20;;
5801;SDS011;2927;49.366;8.530;2022-07-01T12:34:23;1.10;;;1.10;;
5801;SDS011;2927;49.366;8.530;2022-07-01T12:37:00;2.43;;;1.30;;
5801;SDS011;2927;49.366;8.530;2022-07-01T12:39:26;1.70;;;1.10;;
5801;SDS011;2927;49.366;8.530;2022-07-01T12:41:53;1.53;;;1.07;;
5801;SDS011;2927;49.366;8.530;2022-07-01T12:44:25;1.13;;;0.97;;
5801;SDS011;2927;49.366;8.530;2022-07-01T12:46:53;1.37;;;1.07;;
5801;SDS011;2927;49.366;8.530;2022-07-01T12:49:20;3.13;;;1.10;;
5801;SDS011;2927;49.366;8.530;2022-07-01T12:51:50;1.83;;;1.20;;
5801;SDS011;2927;49.366;8.530;2022-07-01T12:54:32;1.27;;;1.10;;
5801;SDS011;2927;49.366;8.530;2022-07-01T12:57:00;1.60;;;1.03;;
5801;SDS011;2927;49.366;8.530;2022-07-01T12:59:26;2.70;;;1.30;;
5801;SDS011;2927;49.366;8.530;2022-07-01T13:01:52;1.30;;;1.00;;
5801;SDS011;2927;49.366;8.530;2022-07-01T13:04:25;2.53;;;1.00;;
5801;SDS011;2927;49.366;8.530;2022-07-01T13:06:52;1.07;;;0.93;;
5801;SDS011;2927;49.366;8.530;2022-07-01T13:09:18;2.63;;;0.97;;
5801;SDS011;2927;49.366;8.530;2022-07-01T13:11:44;0.70;;;0.70;;
5801;SDS011;2927;49.366;8.530;2022-07-01T13:14:09;2.10;;;0.90;;
5801;SDS011;2927;49.366;8.530;2022-07-01T13:16:35;2.63;;;0.90;;
5801;SDS011;2927;49.366;8.530;2022-07-01T13:19:00;0.90;;;0.90;;
5801;SDS011;2927;49.366;8.530;2022-07-01T13:21:26;0.90;;;0.67;;
5801;SDS011;2927;49.366;8.530;2022-07-01T13:23:51;0.90;;;0.90;;
5801;SDS011;2927;49.366;8.530;2022-07-01T13:26:17;2.93;;;1.10;;
5801;SDS011;2927;49.366;8.530;2022-07-01T13:28:43;1.00;;;0.73;;
5801;SDS011;2927;49.366;8.530;2022-07-01T13:31:08;1.10;;;1.00;;
5801;SDS011;2927;49.366;8.530;2022-07-01T13:33:34;0.97;;;0.80;;
5801;SDS011;2927;49.366;8.530;2022-07-01T13:35:59;0.60;;;0.60;;
5801;SDS011;2927;49.366;8.530;2022-07-01T13:38:25;0.90;;;0.60;;
5801;SDS011;2927;49.366;8.530;2022-07-01T13:40:50;1.27;;;0.60;;
5801;SDS011;2927;49.366;8.530;2022-07-01T13:43:16;1.10;;;0.63;;
5801;SDS011;2927;49.366;8.530;2022-07-01T13:45:43;4.30;;;0.90;;
5801;SDS011;2927;49.366;8.530;2022-07-01T13:48:08;0.50;;;0.40;;
5801;SDS011;2927;49.366;8.530;2022-07-01T13:50:34;0.50;;;0.50;;
5801;SDS011;2927;49.366;8.530;2022-07-01T13:53:00;6.93;;;0.70;;
5801;SDS011;2927;49.366;8.530;2022-07-01T13:55:25;1.50;;;0.80;;
5801;SDS011;2927;49.366;8.530;2022-07-01T13:57:51;2.43;;;0.63;;
5801;SDS011;2927;49.366;8.530;2022-07-01T14:00:16;0.67;;;0.67;;
5801;SDS011;2927;49.366;8.530;2022-07-01T14:02:44;1.10;;;0.80;;
5801;SDS011;2927;49.366;8.530;2022-07-01T14:05:10;0.70;;;0.60;;
5801;SDS011;2927;49.366;8.530;2022-07-01T14:07:36;6.00;;;0.77;;
5801;SDS011;2927;49.366;8.530;2022-07-01T14:10:02;0.60;;;0.60;;
5801;SDS011;2927;49.366;8.530;2022-07-01T14:12:28;4.67;;;0.90;;
5801;SDS011;2927;49.366;8.530;2022-07-01T14:14:55;1.20;;;1.10;;
5801;SDS011;2927;49.366;8.530;2022-07-01T14:17:21;8.40;;;0.50;;
5801;SDS011;2927;49.366;8.530;2022-07-01T14:19:46;4.53;;;0.60;;
5801;SDS011;2927;49.366;8.530;2022-07-01T14:22:12;1.53;;;0.60;;
5801;SDS011;2927;49.366;8.530;2022-07-01T14:24:38;1.20;;;0.90;;
5801;SDS011;2927;49.366;8.530;2022-07-01T14:27:04;2.20;;;0.63;;
5801;SDS011;2927;49.366;8.530;2022-07-01T14:29:29;3.10;;;0.60;;
5801;SDS011;2927;49.366;8.530;2022-07-01T14:31:55;1.03;;;0.80;;
5801;SDS011;2927;49.366;8.530;2022-07-01T14:34:21;0.53;;;0.53;;
5801;SDS011;2927;49.366;8.530;2022-07-01T14:36:46;0.50;;;0.50;;
5801;SDS011;2927;49.366;8.530;2022-07-01T14:39:12;0.50;;;0.50;;
5801;SDS011;2927;49.366;8.530;2022-07-01T14:41:37;0.70;;;0.50;;
5801;SDS011;2927;49.366;8.530;2022-07-01T14:44:03;1.13;;;0.47;;
5801;SDS011;2927;49.366;8.530;2022-07-01T14:46:29;1.70;;;0.40;;
5801;SDS011;2927;49.366;8.530;2022-07-01T14:48:54;0.53;;;0.50;;
5801;SDS011;2927;49.366;8.530;2022-07-01T14:51:20;1.73;;;0.67;;
5801;SDS011;2927;49.366;8.530;2022-07-01T14:53:45;0.60;;;0.40;;
5801;SDS011;2927;49.366;8.530;2022-07-01T14:56:11;1.17;;;1.00;;
5801;SDS011;2927;49.366;8.530;2022-07-01T14:58:36;0.67;;;0.50;;
5801;SDS011;2927;49.366;8.530;2022-07-01T15:01:02;1.13;;;0.80;;
5801;SDS011;2927;49.366;8.530;2022-07-01T15:03:28;1.80;;;0.63;;
5801;SDS011;2927;49.366;8.530;2022-07-01T15:05:54;6.47;;;0.73;;
5801;SDS011;2927;49.366;8.530;2022-07-01T15:08:19;1.33;;;0.40;;
5801;SDS011;2927;49.366;8.530;2022-07-01T15:10:46;7.53;;;0.60;;
5801;SDS011;2927;49.366;8.530;2022-07-01T15:13:11;0.97;;;0.90;;
5801;SDS011;2927;49.366;8.530;2022-07-01T15:15:37;0.63;;;0.63;;
5801;SDS011;2927;49.366;8.530;2022-07-01T15:18:03;1.63;;;0.80;;
5801;SDS011;2927;49.366;8.530;2022-07-01T15:20:28;2.50;;;0.60;;
5801;SDS011;2927;49.366;8.530;2022-07-01T15:22:54;2.93;;;0.60;;
5801;SDS011;2927;49.366;8.530;2022-07-01T15:25:21;0.53;;;0.50;;
5801;SDS011;2927;49.366;8.530;2022-07-01T15:27:47;0.93;;;0.40;;
5801;SDS011;2927;49.366;8.530;2022-07-01T15:30:12;0.80;;;0.70;;
5801;SDS011;2927;49.366;8.530;2022-07-01T15:32:38;0.50;;;0.50;;